createdAt,value
2022-12-09T00:02:52.200Z,2.43
2022-12-09T00:05:54.648Z,2.38
2022-12-09T00:08:58.180Z,2.44
2022-12-09T00:12:00.807Z,2.45
2022-12-09T00:15:03.951Z,2.41
2022-12-09T00:18:06.423Z,2.39
2022-12-09T00:21:13.423Z,2.36
2022-12-09T00:24:16.136Z,2.43
2022-12-09T00:27:18.550Z,2.45
2022-12-09T00:30:24.383Z,2.40
2022-12-09T00:33:26.945Z,2.25
2022-12-09T00:36:30.213Z,2.15
2022-12-09T00:39:32.763Z,2.19
2022-12-09T00:42:35.837Z,2.19
2022-12-09T00:45:38.244Z,2.13
2022-12-09T00:48:41.653Z,2.19
2022-12-09T00:51:45.189Z,2.10
2022-12-09T00:54:47.937Z,2.17
2022-12-09T00:57:50.484Z,2.25
2022-12-09T01:00:54.285Z,2.34
2022-12-09T01:03:57.242Z,2.30
2022-12-09T01:07:00.048Z,2.35
2022-12-09T01:10:06.003Z,2.29
2022-12-09T01:13:11.089Z,2.09
2022-12-09T01:16:19.801Z,2.32
2022-12-09T01:19:23.980Z,2.40
2022-12-09T01:22:26.929Z,2.36
2022-12-09T01:25:29.549Z,2.26
2022-12-09T01:28:32.025Z,2.29
2022-12-09T01:31:34.574Z,2.27
2022-12-09T01:34:38.474Z,2.12
2022-12-09T01:37:41.014Z,2.29
2022-12-09T01:40:47.040Z,2.31
2022-12-09T01:44:09.344Z,2.17
2022-12-09T01:47:21.454Z,2.05
2022-12-09T01:50:26.506Z,2.05
2022-12-09T01:53:33.451Z,1.98
2022-12-09T01:56:36.606Z,2.08
2022-12-09T01:59:42.471Z,2.09
2022-12-09T02:02:47.217Z,2.18
2022-12-09T02:05:53.406Z,2.35
2022-12-09T02:08:57.048Z,2.24
2022-12-09T02:12:13.237Z,2.31
2022-12-09T02:15:22.748Z,2.19
2022-12-09T02:18:30.941Z,2.27
2022-12-09T02:21:38.891Z,2.40
2022-12-09T02:24:59.375Z,2.37
2022-12-09T02:28:27.083Z,2.41
2022-12-09T02:32:03.904Z,2.24
2022-12-09T02:35:17.449Z,2.29
2022-12-09T02:38:24.036Z,2.34
2022-12-09T02:41:28.783Z,2.39
2022-12-09T02:44:31.883Z,2.33
2022-12-09T02:47:38.841Z,2.26
2022-12-09T02:50:43.592Z,2.23
2022-12-09T02:53:49.444Z,2.37
2022-12-09T02:56:56.115Z,2.31
2022-12-09T02:59:59.914Z,2.17
2022-12-09T03:03:05.558Z,2.23
2022-12-09T03:06:09.713Z,2.15
2022-12-09T03:09:19.728Z,2.11
2022-12-09T03:12:23.442Z,2.10
2022-12-09T03:15:28.204Z,1.92
2022-12-09T03:18:32.380Z,2.37
2022-12-09T03:21:38.279Z,2.48
2022-12-09T03:24:46.868Z,2.57
2022-12-09T03:28:17.687Z,2.45
2022-12-09T03:31:22.378Z,2.41
2022-12-09T03:34:30.405Z,2.53
2022-12-09T03:37:33.712Z,2.55
2022-12-09T03:40:36.986Z,2.49
2022-12-09T03:43:43.404Z,2.40
2022-12-09T03:46:46.533Z,2.33
2022-12-09T03:49:50.625Z,2.27
2022-12-09T03:52:57.908Z,2.27
2022-12-09T03:56:22.480Z,2.29
2022-12-09T03:59:36.098Z,2.13
2022-12-09T04:02:38.745Z,2.15
2022-12-09T04:05:43.277Z,2.08
2022-12-09T04:08:46.434Z,2.06
2022-12-09T04:11:49.231Z,2.06
2022-12-09T04:14:51.991Z,2.18
2022-12-09T04:17:54.889Z,2.13
2022-12-09T04:20:57.735Z,2.11
2022-12-09T04:24:00.297Z,2.04
2022-12-09T04:27:03.007Z,1.87
2022-12-09T04:30:07.215Z,1.63
2022-12-09T04:33:09.991Z,1.72
2022-12-09T04:36:15.356Z,1.98
2022-12-09T04:39:19.531Z,1.92
2022-12-09T04:42:22.032Z,1.84
2022-12-09T04:45:24.436Z,1.94
2022-12-09T04:48:28.141Z,1.82
2022-12-09T04:51:39.168Z,1.94
2022-12-09T04:54:42.356Z,1.94
2022-12-09T04:57:44.948Z,1.69
2022-12-09T05:00:47.857Z,1.92
2022-12-09T05:03:52.519Z,1.94
2022-12-09T05:06:55.143Z,1.84
2022-12-09T05:09:58.745Z,1.84
2022-12-09T05:13:01.526Z,1.82
2022-12-09T05:16:15.639Z,1.76
2022-12-09T05:19:19.431Z,1.64
2022-12-09T05:22:22.279Z,1.57
2022-12-09T05:25:25.029Z,1.69
2022-12-09T05:28:28.007Z,1.46
2022-12-09T05:31:31.079Z,1.41
2022-12-09T05:34:33.851Z,1.45
2022-12-09T05:37:36.373Z,1.54
2022-12-09T05:40:38.874Z,1.75
2022-12-09T05:43:42.237Z,1.44
2022-12-09T05:46:44.921Z,1.66
2022-12-09T05:49:47.925Z,1.76
2022-12-09T05:52:50.760Z,1.73
2022-12-09T05:55:53.425Z,1.59
2022-12-09T05:58:57.223Z,1.77
2022-12-09T06:02:02.494Z,1.52
2022-12-09T06:05:09.758Z,1.78
2022-12-09T06:08:12.763Z,1.64
2022-12-09T06:11:20.305Z,1.78
2022-12-09T06:14:23.597Z,1.72
2022-12-09T06:17:26.267Z,1.67
2022-12-09T06:20:29.217Z,1.54
2022-12-09T06:23:32.106Z,1.62
2022-12-09T06:26:34.935Z,1.68
2022-12-09T06:29:37.806Z,1.66
2022-12-09T06:32:40.862Z,1.78
2022-12-09T06:35:43.454Z,1.86
2022-12-09T06:38:46.687Z,1.80
2022-12-09T06:41:49.169Z,1.85
2022-12-09T06:44:51.689Z,1.86
2022-12-09T06:47:55.019Z,1.87
2022-12-09T06:50:57.599Z,1.82
2022-12-09T06:54:00.409Z,1.81
2022-12-09T06:57:03.154Z,1.88
2022-12-09T07:00:07.161Z,2.06
2022-12-09T07:03:12.842Z,2.02
2022-12-09T07:06:39.463Z,1.93
2022-12-09T07:09:42.791Z,1.94
2022-12-09T07:12:47.040Z,1.87
2022-12-09T07:15:49.874Z,1.69
2022-12-09T07:18:52.798Z,1.97
2022-12-09T07:21:55.882Z,1.98
2022-12-09T07:24:58.517Z,2.01
2022-12-09T07:28:01.359Z,2.12
2022-12-09T07:31:03.971Z,2.12
2022-12-09T07:34:06.822Z,2.03
2022-12-09T07:37:09.930Z,2.07
2022-12-09T07:40:13.064Z,2.14
2022-12-09T07:43:15.739Z,2.10
2022-12-09T07:46:20.813Z,2.15
2022-12-09T07:49:24.159Z,2.32
2022-12-09T07:52:27.820Z,2.36
2022-12-09T07:55:30.622Z,2.30
2022-12-09T07:58:34.264Z,2.19
2022-12-09T08:01:39.305Z,2.18
2022-12-09T08:04:42.339Z,2.29
2022-12-09T08:07:45.499Z,2.43
2022-12-09T08:10:50.136Z,2.36
2022-12-09T08:13:55.782Z,2.35
2022-12-09T08:16:58.756Z,2.42
2022-12-09T08:20:01.469Z,2.56
2022-12-09T08:23:04.251Z,2.42
2022-12-09T08:26:07.667Z,2.43
2022-12-09T08:29:12.054Z,2.68
2022-12-09T08:32:17.202Z,2.63
2022-12-09T08:35:20.359Z,2.62
2022-12-09T08:38:23.392Z,2.76
2022-12-09T08:41:38.948Z,2.59
2022-12-09T08:44:42.282Z,2.89
2022-12-09T08:47:45.236Z,2.92
2022-12-09T08:50:48.061Z,2.80
2022-12-09T08:53:50.698Z,2.79
2022-12-09T08:56:57.741Z,2.74
2022-12-09T09:00:00.519Z,2.80
2022-12-09T09:03:03.990Z,2.80
2022-12-09T09:06:10.751Z,2.81
2022-12-09T09:09:14.660Z,2.92
2022-12-09T09:12:18.104Z,2.89
2022-12-09T09:15:20.886Z,2.92
2022-12-09T09:18:23.551Z,3.03
2022-12-09T09:21:29.212Z,3.02
2022-12-09T09:24:32.615Z,2.94
2022-12-09T09:27:35.983Z,3.00
2022-12-09T09:30:39.940Z,2.97
2022-12-09T09:33:42.941Z,2.82
2022-12-09T09:36:46.856Z,2.88
2022-12-09T09:39:50.012Z,2.70
2022-12-09T09:42:54.172Z,2.58
2022-12-09T09:45:58.718Z,2.47
2022-12-09T09:49:02.548Z,2.42
2022-12-09T09:52:14.546Z,2.43
2022-12-09T09:55:19.329Z,2.47
2022-12-09T09:58:52.620Z,2.51
2022-12-09T10:02:06.604Z,2.61
2022-12-09T10:05:32.859Z,2.59
2022-12-09T10:08:48.674Z,2.56
2022-12-09T10:11:54.810Z,2.51
2022-12-09T10:15:10.653Z,2.60
2022-12-09T10:18:20.079Z,2.45
2022-12-09T10:21:23.213Z,2.53
2022-12-09T10:24:30.907Z,2.54
2022-12-09T10:27:41.256Z,2.67
2022-12-09T10:30:48.620Z,2.50
2022-12-09T10:33:51.443Z,2.54
2022-12-09T10:36:54.567Z,2.54
2022-12-09T10:40:06.501Z,2.65
2022-12-09T10:43:38.718Z,2.61
2022-12-09T10:46:41.893Z,2.36
2022-12-09T10:49:45.013Z,2.58
2022-12-09T10:52:49.384Z,2.45
2022-12-09T10:55:54.920Z,2.54
2022-12-09T10:59:17.216Z,2.52
2022-12-09T11:02:21.166Z,2.53
2022-12-09T11:05:28.775Z,2.54
2022-12-09T11:08:32.171Z,2.57
2022-12-09T11:11:44.656Z,2.56
2022-12-09T11:14:53.264Z,2.69
2022-12-09T11:18:04.676Z,2.65
2022-12-09T11:21:27.589Z,2.68
2022-12-09T11:24:31.007Z,2.61
2022-12-09T11:27:34.766Z,2.68
2022-12-09T11:31:27.920Z,2.63
2022-12-09T11:34:26.288Z,2.56
2022-12-09T11:37:28.976Z,2.54
2022-12-09T11:40:34.551Z,2.52
2022-12-09T11:43:41.689Z,2.68
2022-12-09T11:46:55.665Z,2.60
2022-12-09T11:50:17.517Z,2.70
2022-12-09T11:53:32.347Z,2.58
2022-12-09T11:56:35.246Z,2.69
2022-12-09T12:00:00.449Z,2.63
2022-12-09T12:03:02.763Z,2.82
2022-12-09T12:06:12.253Z,2.83
2022-12-09T12:09:30.249Z,2.80
2022-12-09T12:12:40.857Z,2.82
2022-12-09T12:16:03.288Z,2.75
2022-12-09T12:19:21.292Z,2.67
2022-12-09T12:22:59.143Z,2.87
2022-12-09T12:26:18.856Z,2.85
2022-12-09T12:29:41.824Z,2.83
2022-12-09T12:36:21.268Z,3.01
2022-12-09T12:39:31.015Z,3.05
2022-12-09T12:43:02.249Z,2.96
2022-12-09T12:46:17.913Z,2.97
2022-12-09T12:50:07.661Z,3.00
2022-12-09T12:53:35.782Z,2.83
2022-12-09T12:56:47.301Z,2.91
2022-12-09T13:00:17.940Z,3.01
2022-12-09T13:03:57.911Z,2.95
2022-12-09T13:07:13.969Z,2.79
2022-12-09T13:10:44.231Z,2.70
2022-12-09T13:14:06.654Z,2.77
2022-12-09T13:17:13.517Z,2.82
2022-12-09T13:20:46.317Z,3.00
2022-12-09T13:23:57.576Z,2.93
2022-12-09T13:27:05.584Z,3.01
2022-12-09T13:30:21.085Z,2.99
2022-12-09T13:33:29.381Z,3.06
2022-12-09T13:36:41.594Z,2.97
2022-12-09T13:39:50.303Z,3.05
2022-12-09T13:42:57.517Z,2.95
2022-12-09T13:46:01.302Z,3.05
2022-12-09T13:49:19.342Z,3.09
2022-12-09T13:52:40.179Z,3.13
2022-12-09T13:56:02.148Z,3.16
2022-12-09T13:59:13.746Z,3.17
2022-12-09T14:02:27.522Z,3.16
2022-12-09T14:05:31.673Z,3.10
2022-12-09T14:08:38.791Z,3.28
2022-12-09T14:11:42.459Z,3.19
2022-12-09T14:14:44.833Z,3.30
2022-12-09T14:17:58.018Z,3.34
2022-12-09T14:21:18.705Z,3.33
2022-12-09T14:24:21.143Z,3.33
2022-12-09T14:27:30.858Z,3.40
2022-12-09T14:30:33.236Z,3.42
2022-12-09T14:33:42.717Z,3.37
2022-12-09T14:36:54.407Z,3.44
2022-12-09T14:40:15.836Z,3.58
2022-12-09T14:43:27.376Z,3.54
2022-12-09T14:46:36.057Z,3.67
2022-12-09T14:49:48.359Z,3.69
2022-12-09T14:52:55.416Z,3.80
2022-12-09T14:55:57.806Z,3.67
2022-12-09T14:59:08.064Z,3.99
2022-12-09T15:02:10.567Z,4.06
2022-12-09T15:05:17.140Z,3.84
2022-12-09T15:08:34.767Z,3.95
2022-12-09T15:11:39.705Z,3.94
2022-12-09T15:14:44.396Z,4.23
2022-12-09T15:18:05.677Z,4.46
2022-12-09T15:21:08.307Z,4.41
2022-12-09T15:24:13.505Z,4.32
2022-12-09T15:27:21.857Z,4.31
2022-12-09T15:30:36.848Z,4.48
2022-12-09T15:33:42.118Z,4.40
2022-12-09T15:36:51.257Z,4.54
2022-12-09T15:40:08.745Z,4.48
2022-12-09T15:43:12.057Z,4.44
2022-12-09T15:46:14.798Z,4.43
2022-12-09T15:49:21.630Z,4.49
2022-12-09T15:52:29.180Z,4.43
2022-12-09T15:55:40.557Z,4.35
2022-12-09T15:58:48.285Z,4.42
2022-12-09T16:01:53.728Z,4.41
2022-12-09T16:05:00.569Z,4.54
2022-12-09T16:08:03.173Z,4.64
2022-12-09T16:11:06.440Z,4.76
2022-12-09T16:14:10.717Z,4.67
2022-12-09T16:17:27.575Z,4.87
2022-12-09T16:20:35.810Z,4.69
2022-12-09T16:23:38.569Z,4.50
2022-12-09T16:26:46.069Z,4.38
2022-12-09T16:29:51.742Z,4.55
2022-12-09T16:32:56.576Z,4.62
2022-12-09T16:36:04.824Z,4.86
2022-12-09T16:39:07.421Z,4.94
2022-12-09T16:42:29.079Z,4.75
2022-12-09T16:45:37.719Z,4.80
2022-12-09T16:48:42.493Z,4.75
2022-12-09T16:51:45.191Z,4.75
2022-12-09T16:54:49.403Z,4.83
2022-12-09T16:57:52.289Z,4.93
2022-12-09T17:00:56.029Z,4.95
2022-12-09T17:04:05.315Z,4.98
2022-12-09T17:07:08.507Z,5.10
2022-12-09T17:10:16.313Z,5.21
2022-12-09T17:13:19.082Z,5.06
2022-12-09T17:16:26.716Z,5.22
2022-12-09T17:19:30.022Z,5.18
2022-12-09T17:22:32.929Z,5.14
2022-12-09T17:25:35.731Z,5.25
2022-12-09T17:28:39.804Z,5.28
2022-12-09T17:31:42.584Z,5.43
2022-12-09T17:34:45.297Z,5.23
2022-12-09T17:37:47.740Z,5.17
2022-12-09T17:40:50.172Z,5.27
2022-12-09T17:43:52.866Z,5.19
2022-12-09T17:46:55.944Z,5.28
2022-12-09T17:49:58.618Z,5.31
2022-12-09T17:53:01.296Z,5.33
2022-12-09T17:56:14.765Z,5.23
2022-12-09T17:59:17.647Z,5.30
2022-12-09T18:02:20.362Z,5.35
2022-12-09T18:05:22.860Z,5.33
2022-12-09T18:08:26.029Z,5.25
2022-12-09T18:11:28.510Z,5.28
2022-12-09T18:14:31.051Z,5.27
2022-12-09T18:17:34.069Z,5.28
2022-12-09T18:20:39.631Z,5.37
2022-12-09T18:23:42.465Z,5.29
2022-12-09T18:26:45.414Z,5.29
2022-12-09T18:29:47.927Z,5.36
2022-12-09T18:32:50.457Z,5.35
2022-12-09T18:35:53.319Z,5.44
2022-12-09T18:38:59.880Z,5.46
2022-12-09T18:42:03.305Z,5.63
2022-12-09T18:45:06.105Z,5.61
2022-12-09T18:48:08.656Z,5.62
2022-12-09T18:51:18.828Z,5.58
2022-12-09T18:54:26.529Z,5.70
2022-12-09T18:57:30.825Z,5.50
2022-12-09T19:00:34.176Z,5.65
2022-12-09T19:03:37.883Z,5.66
2022-12-09T19:06:42.477Z,5.66
2022-12-09T19:09:45.314Z,5.83
2022-12-09T19:12:51.582Z,5.75
2022-12-09T19:15:59.082Z,5.64
2022-12-09T19:19:08.752Z,5.69
2022-12-09T19:22:12.467Z,5.81
2022-12-09T19:25:15.247Z,5.81
2022-12-09T19:28:26.317Z,5.71
2022-12-09T19:31:36.236Z,5.68
2022-12-09T19:34:40.604Z,5.73
2022-12-09T19:37:43.063Z,5.74
2022-12-09T19:40:45.480Z,5.72
2022-12-09T19:43:48.154Z,5.63
2022-12-09T19:46:51.209Z,5.65
2022-12-09T19:49:54.165Z,5.63
2022-12-09T19:52:58.396Z,5.68
2022-12-09T19:56:02.251Z,5.63
2022-12-09T19:59:05.564Z,5.67
2022-12-09T20:02:12.100Z,5.66
2022-12-09T20:05:14.830Z,5.70
2022-12-09T20:08:17.529Z,5.73
2022-12-09T20:11:24.909Z,5.72
2022-12-09T20:14:27.548Z,5.70
2022-12-09T20:17:30.279Z,5.77
2022-12-09T20:20:34.352Z,5.89
2022-12-09T20:23:38.311Z,5.84
2022-12-09T20:26:41.108Z,5.83
2022-12-09T20:29:44.210Z,5.87
2022-12-09T20:32:48.590Z,5.87
2022-12-09T20:35:51.234Z,5.82
2022-12-09T20:38:56.986Z,5.95
2022-12-09T20:42:00.032Z,6.07
2022-12-09T20:45:02.972Z,6.05
2022-12-09T20:48:06.002Z,6.13
2022-12-09T20:51:10.897Z,6.10
2022-12-09T20:54:13.959Z,6.13
2022-12-09T20:57:16.769Z,6.13
2022-12-09T21:00:19.683Z,6.12
2022-12-09T21:03:22.856Z,5.99
2022-12-09T21:06:29.379Z,5.98
2022-12-09T21:09:32.650Z,6.11
2022-12-09T21:12:35.346Z,6.10
2022-12-09T21:15:38.312Z,6.04
2022-12-09T21:18:40.964Z,5.99
2022-12-09T21:21:50.667Z,5.92
2022-12-09T21:24:53.339Z,6.14
2022-12-09T21:27:56.608Z,6.10
2022-12-09T21:30:59.696Z,6.06
2022-12-09T21:34:04.455Z,6.05
2022-12-09T21:37:07.097Z,6.06
2022-12-09T21:40:10.748Z,6.14
2022-12-09T21:43:13.490Z,6.10
2022-12-09T21:46:21.773Z,6.19
2022-12-09T21:49:29.677Z,6.33
2022-12-09T21:52:32.229Z,6.14
2022-12-09T21:55:34.747Z,6.28
2022-12-09T21:58:37.589Z,6.24
2022-12-09T22:01:41.520Z,6.36
2022-12-09T22:04:44.261Z,6.52
2022-12-09T22:07:49.835Z,6.47
2022-12-09T22:10:53.747Z,6.47
2022-12-09T22:13:58.150Z,6.52
2022-12-09T22:17:00.621Z,6.52
2022-12-09T22:20:48.927Z,6.46
2022-12-09T22:23:27.845Z,6.53
2022-12-09T22:26:30.704Z,6.57
2022-12-09T22:29:33.149Z,6.50
2022-12-09T22:32:40.882Z,6.67
2022-12-09T22:35:44.511Z,6.70
2022-12-09T22:38:48.167Z,6.76
2022-12-09T22:41:51.228Z,6.64
2022-12-09T22:44:53.672Z,6.73
2022-12-09T22:47:56.056Z,6.49
2022-12-09T22:51:10.507Z,6.42
2022-12-09T22:54:13.881Z,6.54
2022-12-09T22:57:16.269Z,6.53
2022-12-09T23:00:18.888Z,6.51
2022-12-09T23:03:21.843Z,6.54
2022-12-09T23:06:25.600Z,6.64
2022-12-09T23:09:28.018Z,6.59
2022-12-09T23:12:30.580Z,6.61
2022-12-09T23:15:34.097Z,6.72
2022-12-09T23:18:36.522Z,6.66
2022-12-09T23:21:40.492Z,6.58
2022-12-09T23:24:42.910Z,6.41
2022-12-09T23:27:45.566Z,6.35
2022-12-09T23:30:50.142Z,6.23
2022-12-09T23:33:53.122Z,6.33
2022-12-09T23:36:55.966Z,6.23
2022-12-09T23:39:58.372Z,6.30
2022-12-09T23:43:00.778Z,6.32
2022-12-09T23:46:15.448Z,6.38
2022-12-09T23:49:18.691Z,6.18
2022-12-09T23:52:21.241Z,6.31
2022-12-09T23:55:23.669Z,6.28
2022-12-09T23:58:26.287Z,6.12
